createdAt,value
2023-03-24T00:02:21.935Z,97796.78
2023-03-24T00:04:53.300Z,97795.66
2023-03-24T00:07:25.251Z,97799.25
2023-03-24T00:09:56.120Z,97794.34
2023-03-24T00:12:25.294Z,97788.00
2023-03-24T00:14:55.293Z,97791.56
2023-03-24T00:17:29.511Z,97786.09
2023-03-24T00:19:58.742Z,97779.66
2023-03-24T00:22:28.518Z,97780.06
2023-03-24T00:24:58.978Z,97780.38
2023-03-24T00:27:30.453Z,97768.13
2023-03-24T00:30:00.346Z,97768.91
2023-03-24T00:32:30.454Z,97761.72
2023-03-24T00:35:00.438Z,97761.81
2023-03-24T00:37:29.726Z,97751.47
2023-03-24T00:40:00.312Z,97751.16
2023-03-24T00:42:29.395Z,97751.91
2023-03-24T00:44:58.494Z,97750.31
2023-03-24T00:47:27.878Z,97749.19
2023-03-24T00:49:57.864Z,97742.44
2023-03-24T00:52:34.145Z,97741.28
2023-03-24T00:55:09.034Z,97732.53
2023-03-24T00:57:40.772Z,97729.34
2023-03-24T01:00:14.381Z,97736.47
2023-03-24T01:02:43.654Z,97730.81
2023-03-24T01:05:12.741Z,97723.56
2023-03-24T01:07:43.366Z,97726.72
2023-03-24T01:10:16.267Z,97726.28
2023-03-24T01:12:45.377Z,97727.47
2023-03-24T01:15:21.289Z,97729.91
2023-03-24T01:17:50.719Z,97731.22
2023-03-24T01:20:22.939Z,97729.28
2023-03-24T01:22:53.301Z,97717.78
2023-03-24T01:25:25.888Z,97721.31
2023-03-24T01:27:56.076Z,97714.09
2023-03-24T01:30:28.588Z,97716.56
2023-03-24T01:32:58.343Z,97719.81
2023-03-24T01:35:29.571Z,97718.25
2023-03-24T01:38:00.957Z,97716.66
2023-03-24T01:40:34.830Z,97712.28
2023-03-24T01:43:04.713Z,97707.50
2023-03-24T01:46:16.327Z,97699.94
2023-03-24T01:48:52.481Z,97699.97
2023-03-24T01:51:26.269Z,97693.59
2023-03-24T01:54:01.247Z,97701.53
2023-03-24T01:56:36.667Z,97700.72
2023-03-24T01:59:11.159Z,97694.34
2023-03-24T02:02:04.343Z,97689.97
2023-03-24T02:04:54.197Z,97688.75
2023-03-24T02:07:34.330Z,97687.88
2023-03-24T02:10:07.729Z,97699.47
2023-03-24T02:12:38.340Z,97687.16
2023-03-24T02:15:11.550Z,97693.59
2023-03-24T02:17:59.095Z,97692.78
2023-03-24T02:20:54.527Z,97681.66
2023-03-24T02:24:00.644Z,97694.81
2023-03-24T02:26:55.869Z,97686.03
2023-03-24T02:30:15.420Z,97679.25
2023-03-24T02:33:43.254Z,97686.41
2023-03-24T02:36:48.504Z,97691.19
2023-03-24T02:39:56.227Z,97690.00
2023-03-24T02:42:43.449Z,97676.84
2023-03-24T02:45:26.399Z,97676.84
2023-03-24T02:48:14.772Z,97673.63
2023-03-24T02:50:52.293Z,97670.47
2023-03-24T02:53:31.361Z,97672.06
2023-03-24T02:56:32.230Z,97665.25
2023-03-24T02:59:19.038Z,97668.03
2023-03-24T03:01:57.736Z,97660.81
2023-03-24T03:04:49.932Z,97658.34
2023-03-24T03:07:23.225Z,97656.75
2023-03-24T03:10:01.395Z,97663.88
2023-03-24T03:12:36.872Z,97647.13
2023-03-24T03:15:12.277Z,97649.53
2023-03-24T03:17:48.400Z,97646.34
2023-03-24T03:20:24.416Z,97644.72
2023-03-24T03:22:59.818Z,97647.41
2023-03-24T03:25:34.598Z,97639.81
2023-03-24T03:28:07.780Z,97639.72
2023-03-24T03:30:42.222Z,97648.44
2023-03-24T03:33:25.946Z,97640.84
2023-03-24T03:35:59.998Z,97628.53
2023-03-24T03:38:41.409Z,97622.47
2023-03-24T03:41:10.704Z,97619.75
2023-03-24T03:43:41.247Z,97617.34
2023-03-24T03:46:10.558Z,97619.00
2023-03-24T03:48:42.152Z,97629.22
2023-03-24T03:51:14.159Z,97622.84
2023-03-24T03:53:56.469Z,97629.66
2023-03-24T03:56:29.380Z,97628.53
2023-03-24T03:59:29.739Z,97625.38
2023-03-24T04:02:06.055Z,97630.50
2023-03-24T04:05:07.026Z,97628.91
2023-03-24T04:08:18.192Z,97629.56
2023-03-24T04:11:33.569Z,97624.53
2023-03-24T04:14:44.858Z,97628.13
2023-03-24T04:17:47.133Z,97625.72
2023-03-24T04:20:38.351Z,97631.31
2023-03-24T04:23:26.448Z,97620.94
2023-03-24T04:26:10.547Z,97624.91
2023-03-24T04:28:48.622Z,97621.63
2023-03-24T04:31:27.759Z,97621.56
2023-03-24T04:34:03.684Z,97618.81
2023-03-24T04:36:42.840Z,97612.84
2023-03-24T04:39:35.016Z,97612.88
2023-03-24T04:42:17.820Z,97616.84
2023-03-24T04:44:51.422Z,97616.06
2023-03-24T04:47:44.109Z,97616.91
2023-03-24T04:50:37.300Z,97604.94
2023-03-24T04:53:11.344Z,97610.16
2023-03-24T04:56:07.502Z,97601.00
2023-03-24T04:58:58.759Z,97612.19
2023-03-24T05:01:30.397Z,97610.19
2023-03-24T05:04:26.359Z,97606.16
2023-03-24T05:06:56.835Z,97600.97
2023-03-24T05:09:31.496Z,97588.97
2023-03-24T05:12:02.165Z,97594.56
2023-03-24T05:14:35.588Z,97600.16
2023-03-24T05:17:06.889Z,97586.59
2023-03-24T05:19:37.491Z,97599.38
2023-03-24T05:22:06.577Z,97597.78
2023-03-24T05:24:36.040Z,97592.97
2023-03-24T05:27:05.099Z,97596.50
2023-03-24T05:29:35.311Z,97601.66
2023-03-24T05:32:04.713Z,97601.66
2023-03-24T05:34:33.958Z,97602.06
2023-03-24T05:37:17.730Z,97607.28
2023-03-24T05:39:50.956Z,97609.69
2023-03-24T05:42:50.426Z,97614.72
2023-03-24T05:45:20.601Z,97608.66
2023-03-24T05:47:51.407Z,97617.03
2023-03-24T05:50:26.005Z,97612.63
2023-03-24T05:52:56.432Z,97609.75
2023-03-24T05:55:42.544Z,97616.09
2023-03-24T05:58:34.587Z,97611.59
2023-03-24T06:01:10.279Z,97622.72
2023-03-24T06:03:40.906Z,97619.50
2023-03-24T06:06:17.085Z,97611.59
2023-03-24T06:08:47.800Z,97614.72
2023-03-24T06:11:18.475Z,97614.56
2023-03-24T06:13:59.120Z,97614.41
2023-03-24T06:16:30.204Z,97611.72
2023-03-24T06:19:03.871Z,97614.66
2023-03-24T06:21:56.636Z,97610.19
2023-03-24T06:24:33.112Z,97613.84
2023-03-24T06:27:08.945Z,97606.88
2023-03-24T06:29:38.809Z,97594.50
2023-03-24T06:32:08.772Z,97592.47
2023-03-24T06:34:43.910Z,97587.72
2023-03-24T06:37:42.903Z,97589.53
2023-03-24T06:40:17.642Z,97587.81
2023-03-24T06:42:57.570Z,97587.84
2023-03-24T06:45:26.833Z,97587.22
2023-03-24T06:47:56.869Z,97582.75
2023-03-24T06:50:30.833Z,97595.06
2023-03-24T06:52:59.979Z,97599.63
2023-03-24T06:55:32.450Z,97604.34
2023-03-24T06:58:01.614Z,97605.16
2023-03-24T07:00:30.796Z,97615.78
2023-03-24T07:03:16.206Z,97623.44
2023-03-24T07:05:55.562Z,97625.47
2023-03-24T07:08:37.201Z,97626.09
2023-03-24T07:11:10.162Z,97619.00
2023-03-24T07:13:42.680Z,97614.75
2023-03-24T07:16:11.660Z,97613.34
2023-03-24T07:18:41.967Z,97611.75
2023-03-24T07:21:11.658Z,97612.81
2023-03-24T07:23:40.583Z,97621.63
2023-03-24T07:26:14.992Z,97610.72
2023-03-24T07:28:50.311Z,97607.84
2023-03-24T07:31:42.398Z,97606.81
2023-03-24T07:34:14.683Z,97606.94
2023-03-24T07:36:43.837Z,97601.63
2023-03-24T07:39:17.216Z,97600.13
2023-03-24T07:41:48.286Z,97603.28
2023-03-24T07:44:27.405Z,97601.81
2023-03-24T07:46:56.459Z,97597.03
2023-03-24T07:49:25.985Z,97594.94
2023-03-24T07:52:07.268Z,97590.66
2023-03-24T07:54:48.324Z,97587.97
2023-03-24T07:57:38.324Z,97586.06
2023-03-24T08:00:16.042Z,97585.88
2023-03-24T08:02:54.077Z,97578.22
2023-03-24T08:05:43.524Z,97593.72
2023-03-24T08:08:22.499Z,97596.09
2023-03-24T08:10:51.589Z,97586.25
2023-03-24T08:13:22.565Z,97590.13
2023-03-24T08:15:53.221Z,97577.34
2023-03-24T08:18:22.713Z,97583.94
2023-03-24T08:20:55.469Z,97577.16
2023-03-24T08:23:25.015Z,97568.69
2023-03-24T08:25:53.979Z,97569.81
2023-03-24T08:28:24.646Z,97563.81
2023-03-24T08:30:53.563Z,97560.00
2023-03-24T08:33:22.657Z,97566.56
2023-03-24T08:35:52.813Z,97568.44
2023-03-24T08:38:23.130Z,97572.56
2023-03-24T08:40:53.209Z,97567.31
2023-03-24T08:43:23.311Z,97570.34
2023-03-24T08:45:53.830Z,97571.81
2023-03-24T08:48:23.066Z,97564.06
2023-03-24T08:50:52.398Z,97567.97
2023-03-24T08:53:21.917Z,97559.25
2023-03-24T08:55:51.484Z,97558.22
2023-03-24T08:58:23.039Z,97559.66
2023-03-24T09:00:53.338Z,97564.41
2023-03-24T09:03:23.139Z,97565.81
2023-03-24T09:05:52.288Z,97561.78
2023-03-24T09:08:21.383Z,97554.50
2023-03-24T09:10:51.416Z,97554.25
2023-03-24T09:13:21.378Z,97556.41
2023-03-24T09:15:53.541Z,97562.63
2023-03-24T09:18:23.534Z,97564.38
2023-03-24T09:20:52.874Z,97559.16
2023-03-24T09:23:22.693Z,97551.31
2023-03-24T09:25:52.074Z,97547.75
2023-03-24T09:28:21.921Z,97545.47
2023-03-24T09:30:51.498Z,97551.00
2023-03-24T09:33:22.062Z,97550.78
2023-03-24T09:35:57.788Z,97547.03
2023-03-24T09:38:29.859Z,97538.91
2023-03-24T09:41:02.867Z,97532.16
2023-03-24T09:43:41.956Z,97535.16
2023-03-24T09:46:16.520Z,97531.66
2023-03-24T09:48:52.174Z,97530.66
2023-03-24T09:51:26.627Z,97529.53
2023-03-24T09:54:07.549Z,97526.44
2023-03-24T09:56:39.523Z,97527.44
2023-03-24T09:59:15.114Z,97524.94
2023-03-24T10:01:44.154Z,97536.47
2023-03-24T10:04:19.409Z,97517.91
2023-03-24T10:06:53.437Z,97525.34
2023-03-24T10:09:28.653Z,97529.69
2023-03-24T10:12:16.313Z,97529.03
2023-03-24T10:15:11.502Z,97518.66
2023-03-24T10:17:52.547Z,97516.78
2023-03-24T10:20:33.937Z,97513.94
2023-03-24T10:23:18.335Z,97505.84
2023-03-24T10:25:55.862Z,97508.22
2023-03-24T10:28:32.694Z,97505.63
2023-03-24T10:31:06.961Z,97505.66
2023-03-24T10:33:40.328Z,97497.75
2023-03-24T10:36:14.988Z,97510.59
2023-03-24T10:38:44.089Z,97514.09
2023-03-24T10:41:19.094Z,97514.19
2023-03-24T10:43:48.919Z,97510.34
2023-03-24T10:46:22.301Z,97505.94
2023-03-24T10:48:54.526Z,97506.81
2023-03-24T10:51:28.942Z,97502.53
2023-03-24T10:54:13.285Z,97498.59
2023-03-24T10:56:45.222Z,97491.75
2023-03-24T10:59:27.477Z,97495.59
2023-03-24T11:02:03.957Z,97485.91
2023-03-24T11:04:33.751Z,97491.28
2023-03-24T11:07:08.730Z,97486.94
2023-03-24T11:09:42.650Z,97484.28
2023-03-24T11:12:27.535Z,97476.19
2023-03-24T11:15:20.980Z,97470.19
2023-03-24T11:17:58.267Z,97466.94
2023-03-24T11:20:33.181Z,97469.19
2023-03-24T11:23:07.331Z,97468.97
2023-03-24T11:25:40.510Z,97469.50
2023-03-24T11:28:17.805Z,97478.13
2023-03-24T11:30:50.874Z,97473.03
2023-03-24T11:33:35.506Z,97469.19
2023-03-24T11:36:30.381Z,97460.22
2023-03-24T11:39:03.508Z,97451.25
2023-03-24T11:41:32.529Z,97447.81
2023-03-24T11:44:18.983Z,97443.31
2023-03-24T11:46:53.345Z,97440.72
2023-03-24T11:49:28.530Z,97442.16
2023-03-24T11:51:57.714Z,97437.56
2023-03-24T11:54:33.262Z,97437.16
2023-03-24T11:57:08.377Z,97432.94
2023-03-24T11:59:50.446Z,97424.19
2023-03-24T12:02:35.586Z,97410.78
2023-03-24T12:05:22.550Z,97411.97
2023-03-24T12:08:24.857Z,97409.41
2023-03-24T12:11:08.651Z,97397.16
2023-03-24T12:13:40.538Z,97388.22
2023-03-24T12:16:43.352Z,97395.13
2023-03-24T12:20:02.294Z,97392.03
2023-03-24T12:22:51.033Z,97394.00
2023-03-24T12:25:34.517Z,97394.44
2023-03-24T12:28:26.001Z,97387.28
2023-03-24T12:31:11.464Z,97385.91
2023-03-24T12:33:54.736Z,97385.84
2023-03-24T12:36:40.531Z,97386.22
2023-03-24T12:39:12.632Z,97371.69
2023-03-24T12:42:11.367Z,97373.44
2023-03-24T12:45:23.884Z,97380.06
2023-03-24T12:48:26.740Z,97376.94
2023-03-24T12:51:09.096Z,97373.50
2023-03-24T12:53:53.632Z,97375.81
2023-03-24T12:56:27.909Z,97374.53
2023-03-24T12:59:02.480Z,97376.72
2023-03-24T13:01:38.593Z,97368.44
2023-03-24T13:04:12.235Z,97372.13
2023-03-24T13:06:49.909Z,97366.94
2023-03-24T13:09:40.147Z,97356.03
2023-03-24T13:12:17.264Z,97356.31
2023-03-24T13:14:56.415Z,97367.81
2023-03-24T13:17:32.126Z,97364.97
2023-03-24T13:20:06.370Z,97362.38
2023-03-24T13:22:38.788Z,97368.91
2023-03-24T13:25:24.801Z,97366.28
2023-03-24T13:27:58.101Z,97363.44
2023-03-24T13:30:36.254Z,97361.59
2023-03-24T13:33:15.477Z,97373.59
2023-03-24T13:36:13.760Z,97371.50
2023-03-24T13:38:47.621Z,97367.84
2023-03-24T13:41:24.147Z,97370.47
2023-03-24T13:44:01.299Z,97365.50
2023-03-24T13:46:30.947Z,97355.88
2023-03-24T13:49:01.409Z,97344.94
2023-03-24T13:51:34.083Z,97333.22
2023-03-24T13:54:08.314Z,97323.84
2023-03-24T13:56:40.673Z,97312.59
2023-03-24T13:59:25.780Z,97318.88
2023-03-24T14:02:25.125Z,97306.41
2023-03-24T14:05:12.378Z,97313.91
2023-03-24T14:07:48.585Z,97325.28
2023-03-24T14:10:46.642Z,97340.25
2023-03-24T14:13:36.758Z,97332.72
2023-03-24T14:16:36.228Z,97331.88
2023-03-24T14:19:25.590Z,97323.91
2023-03-24T14:22:05.304Z,97321.28
2023-03-24T14:24:34.631Z,97327.19
2023-03-24T14:27:24.541Z,97322.50
2023-03-24T14:29:54.356Z,97323.44
2023-03-24T14:32:23.762Z,97323.75
2023-03-24T14:34:56.994Z,97329.16
2023-03-24T14:37:30.118Z,97316.00
2023-03-24T14:40:00.995Z,97313.66
2023-03-24T14:43:16.582Z,97313.03
2023-03-24T14:46:03.045Z,97307.88
2023-03-24T14:48:47.419Z,97313.22
2023-03-24T14:51:39.643Z,97314.69
2023-03-24T14:54:18.236Z,97306.47
2023-03-24T14:56:53.687Z,97304.25
2023-03-24T14:59:36.730Z,97298.31
2023-03-24T15:02:21.609Z,97293.94
2023-03-24T15:05:26.378Z,97278.31
2023-03-24T15:08:13.496Z,97273.91
2023-03-24T15:10:49.736Z,97265.06
2023-03-24T15:13:36.101Z,97259.34
2023-03-24T15:16:17.837Z,97258.56
2023-03-24T15:19:00.656Z,97265.31
2023-03-24T15:21:35.288Z,97272.06
2023-03-24T15:24:27.196Z,97271.28
2023-03-24T15:27:20.402Z,97282.75
2023-03-24T15:29:57.675Z,97292.38
2023-03-24T15:32:31.927Z,97278.59
2023-03-24T15:35:07.129Z,97279.34
2023-03-24T15:37:41.418Z,97286.38
2023-03-24T15:40:38.612Z,97276.25
2023-03-24T15:43:20.591Z,97285.03
2023-03-24T15:46:04.732Z,97283.72
2023-03-24T15:48:41.162Z,97290.19
2023-03-24T15:51:15.182Z,97285.09
2023-03-24T15:53:51.028Z,97289.31
2023-03-24T15:56:27.193Z,97284.66
2023-03-24T15:59:15.185Z,97288.34
2023-03-24T16:01:45.516Z,97287.50
2023-03-24T16:04:17.632Z,97278.16
2023-03-24T16:06:53.445Z,97282.81
2023-03-24T16:09:27.230Z,97277.53
2023-03-24T16:11:56.430Z,97278.31
2023-03-24T16:14:28.800Z,97274.69
2023-03-24T16:17:02.311Z,97274.13
2023-03-24T16:19:33.837Z,97282.75
2023-03-24T16:22:03.064Z,97276.50
2023-03-24T16:24:33.053Z,97280.41
2023-03-24T16:27:02.138Z,97277.34
2023-03-24T16:29:32.838Z,97274.72
2023-03-24T16:32:01.866Z,97269.41
2023-03-24T16:34:31.689Z,97281.69
2023-03-24T16:37:00.714Z,97287.16
2023-03-24T16:39:31.072Z,97283.72
2023-03-24T16:42:00.306Z,97290.38
2023-03-24T16:44:29.419Z,97288.72
2023-03-24T16:46:59.973Z,97299.75
2023-03-24T16:49:29.187Z,97299.31
2023-03-24T16:51:58.202Z,97307.81
2023-03-24T16:54:27.389Z,97300.03
2023-03-24T16:56:56.505Z,97307.88
2023-03-24T16:59:27.093Z,97319.09
2023-03-24T17:01:56.572Z,97330.19
2023-03-24T17:04:27.449Z,97342.97
2023-03-24T17:06:57.055Z,97343.44
2023-03-24T17:09:26.797Z,97341.97
2023-03-24T17:11:58.490Z,97351.59
2023-03-24T17:14:27.485Z,97353.13
2023-03-24T17:16:56.728Z,97356.34
2023-03-24T17:19:27.167Z,97358.81
2023-03-24T17:22:02.230Z,97357.41
2023-03-24T17:24:35.887Z,97352.63
2023-03-24T17:27:11.282Z,97357.78
2023-03-24T17:29:40.470Z,97361.53
2023-03-24T17:32:10.332Z,97355.47
2023-03-24T17:34:42.879Z,97359.75
2023-03-24T17:37:11.980Z,97358.25
2023-03-24T17:39:41.233Z,97371.06
2023-03-24T17:42:10.422Z,97368.53
2023-03-24T17:44:39.447Z,97358.28
2023-03-24T17:47:08.602Z,97363.44
2023-03-24T17:49:37.841Z,97358.91
2023-03-24T17:52:08.524Z,97354.75
2023-03-24T17:54:37.826Z,97357.00
2023-03-24T17:57:07.511Z,97356.47
2023-03-24T17:59:38.928Z,97355.88
2023-03-24T18:02:08.805Z,97359.72
2023-03-24T18:04:38.272Z,97368.72
2023-03-24T18:07:09.617Z,97379.13
2023-03-24T18:09:39.172Z,97376.13
2023-03-24T18:12:08.935Z,97380.22
2023-03-24T18:14:37.994Z,97386.72
2023-03-24T18:17:07.292Z,97388.78
2023-03-24T18:19:37.660Z,97399.47
2023-03-24T18:22:08.285Z,97402.34
2023-03-24T18:24:37.804Z,97401.69
2023-03-24T18:27:09.943Z,97406.72
2023-03-24T18:29:39.784Z,97402.63
2023-03-24T18:32:09.006Z,97407.03
2023-03-24T18:34:39.054Z,97411.25
2023-03-24T18:37:09.651Z,97415.75
2023-03-24T18:39:40.625Z,97416.34
2023-03-24T18:42:10.266Z,97413.16
2023-03-24T18:44:39.377Z,97420.69
2023-03-24T18:47:08.403Z,97423.97
2023-03-24T18:49:37.545Z,97431.28
2023-03-24T18:52:08.445Z,97423.06
2023-03-24T18:54:40.507Z,97424.75
2023-03-24T18:57:09.978Z,97420.75
2023-03-24T18:59:39.484Z,97420.44
2023-03-24T19:02:12.229Z,97424.19
2023-03-24T19:04:42.257Z,97414.72
2023-03-24T19:07:14.538Z,97411.44
2023-03-24T19:09:48.401Z,97410.00
2023-03-24T19:12:18.031Z,97407.97
2023-03-24T19:14:49.849Z,97416.50
2023-03-24T19:17:19.384Z,97414.66
2023-03-24T19:19:48.413Z,97413.25
2023-03-24T19:22:21.712Z,97419.00
2023-03-24T19:24:53.098Z,97415.53
2023-03-24T19:27:23.269Z,97411.34
2023-03-24T19:29:52.399Z,97415.41
2023-03-24T19:32:21.475Z,97414.75
2023-03-24T19:34:50.490Z,97418.16
2023-03-24T19:37:20.071Z,97409.44
2023-03-24T19:39:49.084Z,97422.72
2023-03-24T19:42:19.755Z,97434.03
2023-03-24T19:44:48.798Z,97425.84
2023-03-24T19:47:17.837Z,97434.16
2023-03-24T19:49:47.185Z,97425.53
2023-03-24T19:52:16.999Z,97427.25
2023-03-24T19:54:50.057Z,97429.31
2023-03-24T19:57:25.890Z,97440.50
2023-03-24T19:59:56.455Z,97450.47
2023-03-24T20:02:27.251Z,97450.81
2023-03-24T20:04:56.648Z,97453.06
2023-03-24T20:07:26.814Z,97448.22
2023-03-24T20:09:55.896Z,97450.13
2023-03-24T20:12:27.841Z,97436.59
2023-03-24T20:14:57.858Z,97434.34
2023-03-24T20:17:28.849Z,97437.38
2023-03-24T20:19:58.013Z,97445.38
2023-03-24T20:22:27.162Z,97439.03
2023-03-24T20:24:56.465Z,97444.16
2023-03-24T20:27:26.995Z,97435.00
2023-03-24T20:29:56.107Z,97436.59
2023-03-24T20:32:25.329Z,97443.03
2023-03-24T20:34:54.961Z,97439.53
2023-03-24T20:37:33.143Z,97444.28
2023-03-24T20:40:02.395Z,97440.44
2023-03-24T20:42:36.312Z,97449.44
2023-03-24T20:45:07.596Z,97448.84
2023-03-24T20:47:37.585Z,97460.03
2023-03-24T20:50:08.616Z,97461.19
2023-03-24T20:52:38.004Z,97462.28
2023-03-24T20:55:08.941Z,97461.75
2023-03-24T20:57:39.627Z,97465.09
2023-03-24T21:00:14.416Z,97467.22
2023-03-24T21:02:44.488Z,97479.13
2023-03-24T21:05:13.602Z,97482.28
2023-03-24T21:07:44.030Z,97489.75
2023-03-24T21:10:14.515Z,97488.44
2023-03-24T21:12:52.808Z,97491.56
2023-03-24T21:15:25.361Z,97488.41
2023-03-24T21:17:54.834Z,97494.94
2023-03-24T21:20:26.963Z,97484.66
2023-03-24T21:22:56.331Z,97497.16
2023-03-24T21:25:29.065Z,97493.09
2023-03-24T21:28:00.792Z,97491.97
2023-03-24T21:30:37.141Z,97485.25
2023-03-24T21:33:06.663Z,97476.84
2023-03-24T21:35:35.757Z,97473.38
2023-03-24T21:38:05.699Z,97481.94
2023-03-24T21:40:35.368Z,97474.50
2023-03-24T21:43:06.771Z,97475.41
2023-03-24T21:45:37.261Z,97474.06
2023-03-24T21:48:08.148Z,97467.84
2023-03-24T21:50:39.042Z,97477.31
2023-03-24T21:53:15.386Z,97483.63
2023-03-24T21:55:51.844Z,97481.72
2023-03-24T21:58:23.275Z,97486.56
2023-03-24T22:00:53.127Z,97481.50
2023-03-24T22:03:22.868Z,97476.53
2023-03-24T22:05:54.583Z,97487.81
2023-03-24T22:08:26.736Z,97492.44
2023-03-24T22:10:58.079Z,97495.94
2023-03-24T22:13:29.787Z,97497.72
2023-03-24T22:16:03.460Z,97511.38
2023-03-24T22:18:34.766Z,97512.63
2023-03-24T22:21:07.061Z,97522.50
2023-03-24T22:23:39.478Z,97530.13
2023-03-24T22:26:11.315Z,97540.72
2023-03-24T22:28:43.093Z,97555.00
2023-03-24T22:31:14.006Z,97558.75
2023-03-24T22:33:44.167Z,97560.00
2023-03-24T22:36:13.648Z,97568.59
2023-03-24T22:38:42.660Z,97575.41
2023-03-24T22:41:13.924Z,97591.13
2023-03-24T22:43:44.425Z,97603.06
2023-03-24T22:46:13.658Z,97613.06
2023-03-24T22:48:45.338Z,97622.63
2023-03-24T22:51:19.137Z,97613.50
2023-03-24T22:53:51.124Z,97622.22
2023-03-24T22:56:20.343Z,97620.75
2023-03-24T22:58:51.677Z,97625.91
2023-03-24T23:01:21.122Z,97622.06
2023-03-24T23:03:50.244Z,97637.28
2023-03-24T23:06:22.284Z,97642.22
2023-03-24T23:08:53.476Z,97647.13
2023-03-24T23:11:23.037Z,97652.16
2023-03-24T23:13:54.163Z,97651.88
2023-03-24T23:16:23.341Z,97648.13
2023-03-24T23:18:52.771Z,97641.34
2023-03-24T23:21:21.789Z,97640.03
2023-03-24T23:23:51.170Z,97641.78
2023-03-24T23:26:25.606Z,97643.03
2023-03-24T23:28:57.338Z,97644.81
2023-03-24T23:31:29.151Z,97647.47
2023-03-24T23:33:59.294Z,97645.09
2023-03-24T23:36:28.743Z,97646.28
2023-03-24T23:38:57.890Z,97649.47
2023-03-24T23:41:26.948Z,97641.16
2023-03-24T23:43:57.600Z,97632.03
2023-03-24T23:46:26.696Z,97626.53
2023-03-24T23:48:56.016Z,97629.47
2023-03-24T23:51:25.032Z,97634.06
2023-03-24T23:53:54.104Z,97627.19
2023-03-24T23:56:25.166Z,97623.72
2023-03-24T23:58:54.198Z,97617.28
